KOVE/OVE METAR and TAF weather

Enter ICAO airport designator
Station Type Date Time Source
KOVE METAR 2022/05/23 14:53 UTC NOAA

KOVE 231453Z AUTO VRB03KT 10SM CLR 22/02 A2996 RMK AO2 SLP146 T02170022 52005


Station Type Date Time Source
KOVE Decoded METAR 2022/05/23 14:53 UTC NOAA

OROVILLE MUNICIPAL AIRPORT, CA, United States (KOVE) 39-30N 121-37W 58M
May 23, 2022 - 10:53 AM EDT / 2022.05.23 1453 UTC
Wind: Variable at 3 MPH (3 KT):0
Visibility: 10 mile(s):0
Sky conditions: clear
Temperature: 71.1 F (21.7 C)
Dew Point: 36.0 F (2.2 C)
Relative Humidity: 27%
Pressure (altimeter): 29.96 in. Hg (1014 hPa)
Pressure tendency: 0.01 inches (0.5 hPa) higher than three hours ago
ob: KOVE 231453Z AUTO VRB03KT 10SM CLR 22/02 A2996 RMK AO2 SLP146 T02170022 52005
cycle: 15

Station Type Date Time Source
KOVE TAF UTC NOAA

Error!

Example: see airport list